Terminal Aerodrome Forecast
Issued by NWS Missoula, MT

Home | Current Version | Previous Version | Text Only | Print | Product List | Glossary On
Versions: 1 2 3 4 5 6 7 8 9 10 11 12 13 14 15 16 17 18 19 20 21 22 23 24 25 26 27 28 29
000
FTUS45 KMSO 281924 AAB
TAFMSO
TAF AMD
KMSO 281924Z 2819/2918 09006KT P6SM -RA BKN050 OVC060
     FM290100 15015KT P6SM -RA OVC030
     FM290500 15015G20KT 6SM -RASN BR SCT020 OVC030
     FM291000 34015G25KT 6SM -SN BR BKN010 OVC030
     FM291400 34016KT 6SM -SN BR OVC015=

USA.gov is the U.S. government's official web portal to all federal, state and local government web resources and services.